ASA64 PANC-PAJN
Flight info
| Callsign | ASA64 |
|---|---|
| Flight time | 1h 17m |
| Altitude | 39000 |
| Route | NOEND4 NOEND CUSHI |
| Aircraft | B737/M-SDE2E3FGHIRWXY/LB1 |
Departure
| Time | 2026-04-25 19:24 |
|---|---|
| Airport | Ted Stevens Anchorage International Airport (PANC) |
Arrival
| Time | 2026-04-25 20:41 |
|---|---|
| Airport | Juneau International Airport (PAJN) |
| Time | Latitude | Longitude | Altitude | Speed | Heading |
|---|---|---|---|---|---|
| 2026-04-25 18:28 | 61.17505 | -149.98443 | 109 ft | 0 kts | 82° |
| 2026-04-25 19:16 | 61.17503 | -149.98472 | 109 ft | 2 kts | 82° |
| 2026-04-25 19:16 | 61.17501 | -149.98507 | 108 ft | 2 kts | 82° |
| 2026-04-25 19:16 | 61.17499 | -149.98541 | 106 ft | 2 kts | 82° |
| 2026-04-25 19:16 | 61.17497 | -149.98571 | 105 ft | 2 kts | 85° |
| 2026-04-25 19:17 | 61.17498 | -149.98597 | 104 ft | 2 kts | 121° |
| 2026-04-25 19:17 | 61.17507 | -149.98616 | 105 ft | 2 kts | 159° |
| 2026-04-25 19:17 | 61.17512 | -149.98620 | 102 ft | 0 kts | 159° |
| 2026-04-25 19:18 | 61.17502 | -149.98613 | 104 ft | 4 kts | 160° |
| 2026-04-25 19:18 | 61.17463 | -149.98582 | 107 ft | 7 kts | 160° |
| 2026-04-25 19:19 | 61.17418 | -149.98567 | 107 ft | 7 kts | 191° |
| 2026-04-25 19:19 | 61.17376 | -149.98616 | 107 ft | 8 kts | 213° |
| 2026-04-25 19:19 | 61.17327 | -149.98682 | 109 ft | 9 kts | 213° |
| 2026-04-25 19:19 | 61.17293 | -149.98730 | 109 ft | 9 kts | 213° |
| 2026-04-25 19:20 | 61.17227 | -149.98825 | 111 ft | 9 kts | 223° |
| 2026-04-25 19:20 | 61.17188 | -149.98915 | 111 ft | 8 kts | 230° |
| 2026-04-25 19:20 | 61.17152 | -149.99005 | 106 ft | 8 kts | 230° |
| 2026-04-25 19:20 | 61.17127 | -149.99103 | 116 ft | 8 kts | 264° |
| 2026-04-25 19:21 | 61.17125 | -149.99213 | 118 ft | 8 kts | 270° |
| 2026-04-25 19:21 | 61.17125 | -149.99425 | 121 ft | 7 kts | 270° |
| 2026-04-25 19:21 | 61.17125 | -149.99548 | 124 ft | 10 kts | 270° |
| 2026-04-25 19:22 | 61.17125 | -149.99696 | 127 ft | 10 kts | 270° |
| 2026-04-25 19:22 | 61.17125 | -149.99816 | 129 ft | 4 kts | 270° |
| 2026-04-25 19:22 | 61.17151 | -149.99872 | 128 ft | 0 kts | 345° |
| 2026-04-25 19:23 | 61.17154 | -149.99874 | 129 ft | 4 kts | 345° |
| 2026-04-25 19:23 | 61.18143 | -150.00428 | 125 ft | 139 kts | 345° |
| 2026-04-25 19:23 | 61.19205 | -150.01018 | 425 ft | 163 kts | 344° |
| 2026-04-25 19:24 | 61.20274 | -150.01756 | 1169 ft | 169 kts | 330° |
| 2026-04-25 19:24 | 61.21315 | -150.03230 | 1629 ft | 190 kts | 326° |
| 2026-04-25 19:24 | 61.23655 | -150.06575 | 2655 ft | 220 kts | 326° |
| 2026-04-25 19:25 | 61.26414 | -150.10468 | 3683 ft | 251 kts | 326° |
| 2026-04-25 19:25 | 61.27909 | -150.12392 | 4481 ft | 255 kts | 339° |
| 2026-04-25 19:25 | 61.29660 | -150.12842 | 5275 ft | 256 kts | 12° |
| 2026-04-25 19:26 | 61.31251 | -150.11340 | 6104 ft | 253 kts | 41° |
| 2026-04-25 19:26 | 61.32516 | -150.08864 | 6921 ft | 254 kts | 49° |
| 2026-04-25 19:26 | 61.33737 | -150.06148 | 7710 ft | 260 kts | 50° |
| 2026-04-25 19:26 | 61.34876 | -150.03218 | 8519 ft | 261 kts | 66° |
| 2026-04-25 19:27 | 61.35297 | -149.99605 | 9393 ft | 256 kts | 96° |
| 2026-04-25 19:27 | 61.35246 | -149.98352 | 9632 ft | 259 kts | 104° |
| 2026-04-25 19:27 | 61.33722 | -149.92817 | 10311 ft | 284 kts | 135° |
| 2026-04-25 19:27 | 61.32299 | -149.89719 | 10528 ft | 309 kts | 137° |
| 2026-04-25 19:28 | 61.30739 | -149.86389 | 10724 ft | 332 kts | 136° |
| 2026-04-25 19:28 | 61.29110 | -149.82838 | 11278 ft | 343 kts | 136° |
| 2026-04-25 19:28 | 61.27483 | -149.79175 | 12048 ft | 347 kts | 131° |
| 2026-04-25 19:28 | 61.26282 | -149.74765 | 12854 ft | 357 kts | 112° |
| 2026-04-25 19:29 | 61.25614 | -149.69762 | 13687 ft | 361 kts | 108° |
| 2026-04-25 19:29 | 61.25004 | -149.64672 | 14391 ft | 365 kts | 108° |
| 2026-04-25 19:29 | 61.24401 | -149.59508 | 14961 ft | 372 kts | 107° |
| 2026-04-25 19:29 | 61.23874 | -149.54183 | 15493 ft | 380 kts | 105° |
| 2026-04-25 19:30 | 61.23364 | -149.48789 | 16230 ft | 382 kts | 106° |
| 2026-04-25 19:30 | 61.22834 | -149.43356 | 16921 ft | 385 kts | 107° |
| 2026-04-25 19:30 | 61.22296 | -149.37960 | 17578 ft | 389 kts | 107° |
| 2026-04-25 19:30 | 61.21754 | -149.32422 | 18209 ft | 393 kts | 106° |
| 2026-04-25 19:31 | 61.21219 | -149.26839 | 18828 ft | 397 kts | 106° |
| 2026-04-25 19:31 | 61.20681 | -149.21194 | 19524 ft | 401 kts | 106° |
| 2026-04-25 19:31 | 61.20137 | -149.15510 | 20300 ft | 403 kts | 107° |
| 2026-04-25 19:31 | 61.19587 | -149.09782 | 20960 ft | 408 kts | 107° |
| 2026-04-25 19:32 | 61.19026 | -149.03996 | 21632 ft | 411 kts | 107° |
| 2026-04-25 19:32 | 61.18457 | -148.98156 | 22340 ft | 414 kts | 107° |
| 2026-04-25 19:32 | 61.17882 | -148.92289 | 23001 ft | 416 kts | 107° |
| 2026-04-25 19:32 | 61.17694 | -148.90377 | 23195 ft | 418 kts | 107° |
| 2026-04-25 19:33 | 61.16712 | -148.80445 | 24067 ft | 423 kts | 107° |
| 2026-04-25 19:33 | 61.16114 | -148.74428 | 24511 ft | 426 kts | 107° |
| 2026-04-25 19:33 | 61.15519 | -148.68473 | 24949 ft | 429 kts | 107° |
| 2026-04-25 19:33 | 61.14909 | -148.62391 | 25344 ft | 433 kts | 107° |
| 2026-04-25 19:34 | 61.14290 | -148.56249 | 25727 ft | 437 kts | 107° |
| 2026-04-25 19:34 | 61.13663 | -148.50063 | 26164 ft | 440 kts | 107° |
| 2026-04-25 19:34 | 61.12992 | -148.43880 | 26622 ft | 441 kts | 110° |
| 2026-04-25 19:34 | 61.12154 | -148.37752 | 27009 ft | 442 kts | 112° |
| 2026-04-25 19:35 | 61.11226 | -148.31678 | 27406 ft | 444 kts | 113° |
| 2026-04-25 19:35 | 61.10258 | -148.25580 | 27808 ft | 447 kts | 114° |
| 2026-04-25 19:35 | 61.09281 | -148.19446 | 28242 ft | 450 kts | 113° |
| 2026-04-25 19:35 | 61.08305 | -148.13274 | 28618 ft | 453 kts | 113° |
| 2026-04-25 19:36 | 61.07333 | -148.07058 | 28951 ft | 456 kts | 113° |
| 2026-04-25 19:36 | 61.06364 | -148.00816 | 29381 ft | 457 kts | 113° |
| 2026-04-25 19:36 | 61.05403 | -147.94584 | 29946 ft | 454 kts | 113° |
| 2026-04-25 19:36 | 61.04446 | -147.88376 | 30467 ft | 453 kts | 114° |
| 2026-04-25 19:37 | 61.03489 | -147.82185 | 30849 ft | 453 kts | 113° |
| 2026-04-25 19:37 | 61.02537 | -147.76050 | 31152 ft | 454 kts | 113° |
| 2026-04-25 19:37 | 61.01885 | -147.71864 | 31437 ft | 454 kts | 113° |
| 2026-04-25 19:37 | 61.00605 | -147.63667 | 31975 ft | 452 kts | 113° |
| 2026-04-25 19:38 | 60.99638 | -147.57499 | 32341 ft | 452 kts | 113° |
| 2026-04-25 19:38 | 60.98665 | -147.51330 | 32675 ft | 453 kts | 113° |
| 2026-04-25 19:38 | 60.98007 | -147.47168 | 32917 ft | 452 kts | 113° |
| 2026-04-25 19:38 | 60.97030 | -147.41004 | 33300 ft | 452 kts | 113° |
| 2026-04-25 19:39 | 60.96054 | -147.34870 | 33671 ft | 451 kts | 113° |
| 2026-04-25 19:39 | 60.95073 | -147.28727 | 33945 ft | 451 kts | 114° |
| 2026-04-25 19:39 | 60.94092 | -147.22605 | 34333 ft | 450 kts | 114° |
| 2026-04-25 19:39 | 60.93125 | -147.16586 | 34647 ft | 449 kts | 114° |
| 2026-04-25 19:40 | 60.92141 | -147.10487 | 34867 ft | 450 kts | 114° |
| 2026-04-25 19:40 | 60.91152 | -147.04378 | 35081 ft | 451 kts | 114° |
| 2026-04-25 19:40 | 60.90159 | -146.98264 | 35331 ft | 451 kts | 114° |
| 2026-04-25 19:40 | 60.89165 | -146.92163 | 35600 ft | 451 kts | 114° |
| 2026-04-25 19:41 | 60.88166 | -146.86055 | 35809 ft | 452 kts | 114° |
| 2026-04-25 19:41 | 60.87163 | -146.79938 | 35996 ft | 453 kts | 114° |
| 2026-04-25 19:41 | 60.86155 | -146.73816 | 36235 ft | 453 kts | 114° |
| 2026-04-25 19:41 | 60.85473 | -146.69685 | 36396 ft | 452 kts | 114° |
| 2026-04-25 19:42 | 60.84133 | -146.61594 | 36672 ft | 453 kts | 114° |
| 2026-04-25 19:42 | 60.83116 | -146.55477 | 36894 ft | 453 kts | 114° |
| 2026-04-25 19:42 | 60.82096 | -146.49366 | 37147 ft | 453 kts | 114° |
| 2026-04-25 19:42 | 60.81076 | -146.43272 | 37374 ft | 453 kts | 114° |
| 2026-04-25 19:43 | 60.80052 | -146.37171 | 37573 ft | 453 kts | 114° |
| 2026-04-25 19:43 | 60.79024 | -146.31071 | 37782 ft | 453 kts | 114° |
| 2026-04-25 19:43 | 60.77993 | -146.24979 | 38020 ft | 453 kts | 114° |
| 2026-04-25 19:43 | 60.76961 | -146.18892 | 38242 ft | 453 kts | 114° |
| 2026-04-25 19:44 | 60.75926 | -146.12808 | 38458 ft | 453 kts | 114° |
| 2026-04-25 19:44 | 60.74885 | -146.06719 | 38650 ft | 453 kts | 114° |
| 2026-04-25 19:44 | 60.73843 | -146.00635 | 38849 ft | 454 kts | 114° |
| 2026-04-25 19:44 | 60.72812 | -145.94636 | 39044 ft | 452 kts | 114° |
| 2026-04-25 19:45 | 60.71755 | -145.88509 | 39259 ft | 450 kts | 114° |
| 2026-04-25 19:45 | 60.70722 | -145.82538 | 39290 ft | 454 kts | 114° |
| 2026-04-25 19:45 | 60.68603 | -145.70360 | 39287 ft | 454 kts | 114° |
| 2026-04-25 19:46 | 60.66485 | -145.58247 | 39286 ft | 452 kts | 114° |
| 2026-04-25 19:46 | 60.64367 | -145.46217 | 39281 ft | 450 kts | 114° |
| 2026-04-25 19:47 | 60.62244 | -145.34244 | 39257 ft | 449 kts | 114° |
| 2026-04-25 19:47 | 60.60114 | -145.22307 | 39282 ft | 448 kts | 114° |
| 2026-04-25 19:48 | 60.57975 | -145.10394 | 39293 ft | 448 kts | 114° |
| 2026-04-25 19:48 | 60.55821 | -144.98475 | 39286 ft | 449 kts | 114° |
| 2026-04-25 19:49 | 60.54021 | -144.88567 | 39290 ft | 449 kts | 115° |
| 2026-04-25 19:49 | 60.51492 | -144.74736 | 39286 ft | 450 kts | 115° |
| 2026-04-25 19:50 | 60.48207 | -144.56910 | 39275 ft | 450 kts | 115° |
| 2026-04-25 19:51 | 60.45999 | -144.45029 | 39292 ft | 451 kts | 115° |
| 2026-04-25 19:51 | 60.43778 | -144.33147 | 39286 ft | 451 kts | 115° |
| 2026-04-25 19:52 | 60.41547 | -144.21278 | 39290 ft | 451 kts | 115° |
| 2026-04-25 19:52 | 60.39302 | -144.09415 | 39280 ft | 452 kts | 115° |
| 2026-04-25 19:53 | 60.37050 | -143.97580 | 39281 ft | 451 kts | 116° |
| 2026-04-25 19:53 | 60.34788 | -143.85769 | 39283 ft | 451 kts | 116° |
| 2026-04-25 19:54 | 60.32513 | -143.73960 | 39280 ft | 451 kts | 116° |
| 2026-04-25 19:54 | 60.30244 | -143.62252 | 39280 ft | 451 kts | 116° |
| 2026-04-25 19:55 | 60.27949 | -143.50483 | 39279 ft | 451 kts | 116° |
| 2026-04-25 19:55 | 60.25645 | -143.38735 | 39278 ft | 451 kts | 116° |
| 2026-04-25 19:56 | 60.23327 | -143.26982 | 39274 ft | 451 kts | 116° |
| 2026-04-25 19:56 | 60.21003 | -143.15272 | 39275 ft | 450 kts | 116° |
| 2026-04-25 19:57 | 60.18672 | -143.03589 | 39278 ft | 450 kts | 116° |
| 2026-04-25 19:57 | 60.16335 | -142.91953 | 39272 ft | 450 kts | 116° |
| 2026-04-25 19:58 | 60.13993 | -142.80354 | 39251 ft | 449 kts | 117° |
| 2026-04-25 19:58 | 60.11633 | -142.68728 | 39264 ft | 449 kts | 117° |
| 2026-04-25 19:59 | 60.09282 | -142.57220 | 39276 ft | 449 kts | 117° |
| 2026-04-25 19:59 | 60.06899 | -142.45625 | 39272 ft | 450 kts | 117° |
| 2026-04-25 20:00 | 60.04508 | -142.34049 | 39275 ft | 450 kts | 117° |
| 2026-04-25 20:00 | 60.02105 | -142.22486 | 39245 ft | 450 kts | 117° |
| 2026-04-25 20:01 | 59.98483 | -142.05174 | 39271 ft | 450 kts | 118° |
| 2026-04-25 20:01 | 59.96055 | -141.93648 | 39272 ft | 450 kts | 118° |
| 2026-04-25 20:02 | 59.93617 | -141.82144 | 39267 ft | 451 kts | 118° |
| 2026-04-25 20:02 | 59.91165 | -141.70635 | 39266 ft | 451 kts | 118° |
| 2026-04-25 20:03 | 59.88719 | -141.59220 | 39254 ft | 451 kts | 118° |
| 2026-04-25 20:03 | 59.86247 | -141.47745 | 39266 ft | 450 kts | 118° |
| 2026-04-25 20:04 | 59.83769 | -141.36306 | 39267 ft | 450 kts | 118° |
| 2026-04-25 20:04 | 59.81282 | -141.24887 | 39270 ft | 450 kts | 118° |
| 2026-04-25 20:05 | 59.78779 | -141.13461 | 39270 ft | 450 kts | 118° |
| 2026-04-25 20:05 | 59.76273 | -141.02081 | 39265 ft | 450 kts | 118° |
| 2026-04-25 20:06 | 59.73759 | -140.90725 | 39258 ft | 449 kts | 118° |
| 2026-04-25 20:06 | 59.71232 | -140.79373 | 39276 ft | 450 kts | 118° |
| 2026-04-25 20:07 | 59.68713 | -140.68118 | 39276 ft | 450 kts | 118° |
| 2026-04-25 20:07 | 59.66165 | -140.56797 | 39269 ft | 451 kts | 118° |
| 2026-04-25 20:08 | 59.63606 | -140.45482 | 39274 ft | 451 kts | 119° |
| 2026-04-25 20:08 | 59.61034 | -140.34175 | 39268 ft | 451 kts | 118° |
| 2026-04-25 20:09 | 59.58452 | -140.22880 | 39274 ft | 451 kts | 119° |
| 2026-04-25 20:09 | 59.55859 | -140.11596 | 39272 ft | 452 kts | 119° |
| 2026-04-25 20:10 | 59.53254 | -140.00323 | 39270 ft | 452 kts | 119° |
| 2026-04-25 20:10 | 59.50638 | -139.89058 | 39273 ft | 452 kts | 119° |
| 2026-04-25 20:11 | 59.48028 | -139.77881 | 39260 ft | 452 kts | 119° |
| 2026-04-25 20:11 | 59.45395 | -139.66662 | 39264 ft | 452 kts | 119° |
| 2026-04-25 20:12 | 59.42753 | -139.55464 | 39271 ft | 452 kts | 119° |
| 2026-04-25 20:12 | 59.40979 | -139.47978 | 39264 ft | 452 kts | 119° |
| 2026-04-25 20:13 | 59.37439 | -139.33114 | 39269 ft | 451 kts | 119° |
| 2026-04-25 20:13 | 59.34769 | -139.21970 | 39251 ft | 451 kts | 119° |
| 2026-04-25 20:14 | 59.32093 | -139.10857 | 39263 ft | 451 kts | 120° |
| 2026-04-25 20:14 | 59.29424 | -138.99831 | 39269 ft | 450 kts | 120° |
| 2026-04-25 20:15 | 59.26734 | -138.88774 | 39278 ft | 450 kts | 120° |
| 2026-04-25 20:15 | 59.24036 | -138.77741 | 39280 ft | 450 kts | 120° |
| 2026-04-25 20:16 | 59.21328 | -138.66724 | 39259 ft | 450 kts | 120° |
| 2026-04-25 20:16 | 59.18614 | -138.55735 | 39267 ft | 450 kts | 120° |
| 2026-04-25 20:17 | 59.15890 | -138.44761 | 39270 ft | 449 kts | 120° |
| 2026-04-25 20:17 | 59.13163 | -138.33829 | 39272 ft | 448 kts | 120° |
| 2026-04-25 20:18 | 59.10428 | -138.22921 | 39280 ft | 448 kts | 120° |
| 2026-04-25 20:18 | 59.07691 | -138.12057 | 39284 ft | 447 kts | 121° |
| 2026-04-25 20:19 | 59.04944 | -138.01205 | 39273 ft | 447 kts | 121° |
| 2026-04-25 20:19 | 59.02191 | -137.90388 | 39267 ft | 446 kts | 121° |
| 2026-04-25 20:20 | 58.99433 | -137.79600 | 39261 ft | 446 kts | 121° |
| 2026-04-25 20:20 | 58.96666 | -137.68839 | 38597 ft | 452 kts | 121° |
| 2026-04-25 20:21 | 58.95265 | -137.63407 | 37924 ft | 449 kts | 121° |
| 2026-04-25 20:21 | 58.93872 | -137.58013 | 37272 ft | 446 kts | 122° |
| 2026-04-25 20:21 | 58.92483 | -137.52643 | 36587 ft | 445 kts | 122° |
| 2026-04-25 20:21 | 58.91096 | -137.47296 | 35869 ft | 444 kts | 122° |
| 2026-04-25 20:22 | 58.89711 | -137.41952 | 35096 ft | 444 kts | 122° |
| 2026-04-25 20:22 | 58.89241 | -137.40145 | 34832 ft | 443 kts | 122° |
| 2026-04-25 20:22 | 58.86920 | -137.31282 | 33404 ft | 446 kts | 123° |
| 2026-04-25 20:22 | 58.85511 | -137.25924 | 32503 ft | 447 kts | 123° |
| 2026-04-25 20:23 | 58.84100 | -137.20569 | 31591 ft | 449 kts | 123° |
| 2026-04-25 20:23 | 58.82683 | -137.15193 | 30652 ft | 450 kts | 122° |
| 2026-04-25 20:23 | 58.81259 | -137.09802 | 29554 ft | 451 kts | 122° |
| 2026-04-25 20:23 | 58.79838 | -137.04426 | 28490 ft | 449 kts | 122° |
| 2026-04-25 20:24 | 58.78433 | -136.99121 | 27399 ft | 450 kts | 122° |
| 2026-04-25 20:24 | 58.77021 | -136.93807 | 26631 ft | 442 kts | 122° |
| 2026-04-25 20:24 | 58.75626 | -136.88568 | 25894 ft | 436 kts | 122° |
| 2026-04-25 20:24 | 58.74245 | -136.83399 | 25111 ft | 432 kts | 122° |
| 2026-04-25 20:25 | 58.72871 | -136.78267 | 24357 ft | 429 kts | 122° |
| 2026-04-25 20:25 | 58.71505 | -136.73181 | 23516 ft | 427 kts | 122° |
| 2026-04-25 20:25 | 58.70147 | -136.68138 | 22654 ft | 423 kts | 122° |
| 2026-04-25 20:25 | 58.68802 | -136.63150 | 21898 ft | 417 kts | 121° |
| 2026-04-25 20:26 | 58.67472 | -136.58228 | 21131 ft | 412 kts | 121° |
| 2026-04-25 20:26 | 58.66153 | -136.53359 | 20346 ft | 409 kts | 121° |
| 2026-04-25 20:26 | 58.65281 | -136.50147 | 19854 ft | 407 kts | 121° |
| 2026-04-25 20:26 | 58.63977 | -136.45351 | 19110 ft | 404 kts | 121° |
| 2026-04-25 20:27 | 58.62681 | -136.40592 | 18328 ft | 401 kts | 121° |
| 2026-04-25 20:27 | 58.61390 | -136.35865 | 17515 ft | 398 kts | 121° |
| 2026-04-25 20:27 | 58.60109 | -136.31180 | 16732 ft | 395 kts | 121° |
| 2026-04-25 20:27 | 58.58840 | -136.26548 | 16006 ft | 391 kts | 121° |
| 2026-04-25 20:28 | 58.57580 | -136.21960 | 15246 ft | 387 kts | 121° |
| 2026-04-25 20:28 | 58.56330 | -136.17418 | 14529 ft | 384 kts | 121° |
| 2026-04-25 20:28 | 58.55088 | -136.12912 | 13780 ft | 381 kts | 121° |
| 2026-04-25 20:28 | 58.53853 | -136.08440 | 13014 ft | 378 kts | 121° |
| 2026-04-25 20:29 | 58.52629 | -136.04018 | 12300 ft | 373 kts | 121° |
| 2026-04-25 20:29 | 58.51414 | -135.99637 | 11431 ft | 373 kts | 121° |
| 2026-04-25 20:29 | 58.50195 | -135.95254 | 10791 ft | 369 kts | 121° |
| 2026-04-25 20:29 | 58.49025 | -135.91040 | 10622 ft | 351 kts | 121° |
| 2026-04-25 20:30 | 58.47906 | -135.87019 | 10452 ft | 334 kts | 121° |
| 2026-04-25 20:30 | 58.46836 | -135.83182 | 10308 ft | 320 kts | 121° |
| 2026-04-25 20:30 | 58.45823 | -135.79560 | 10179 ft | 307 kts | 121° |
| 2026-04-25 20:30 | 58.44839 | -135.76052 | 10035 ft | 294 kts | 121° |
| 2026-04-25 20:31 | 58.43893 | -135.72680 | 9830 ft | 285 kts | 121° |
| 2026-04-25 20:31 | 58.42963 | -135.69377 | 9514 ft | 280 kts | 121° |
| 2026-04-25 20:31 | 58.42043 | -135.66114 | 9146 ft | 278 kts | 121° |
| 2026-04-25 20:31 | 58.41131 | -135.62884 | 8816 ft | 275 kts | 121° |
| 2026-04-25 20:32 | 58.40229 | -135.59686 | 8475 ft | 273 kts | 121° |
| 2026-04-25 20:32 | 58.39331 | -135.56506 | 8143 ft | 271 kts | 121° |
| 2026-04-25 20:32 | 58.38439 | -135.53357 | 7808 ft | 269 kts | 120° |
| 2026-04-25 20:32 | 58.37552 | -135.50228 | 7475 ft | 267 kts | 120° |
| 2026-04-25 20:33 | 58.36670 | -135.47118 | 7148 ft | 266 kts | 119° |
| 2026-04-25 20:33 | 58.36180 | -135.43770 | 6938 ft | 262 kts | 94° |
| 2026-04-25 20:33 | 58.36164 | -135.40309 | 6837 ft | 263 kts | 91° |
| 2026-04-25 20:33 | 58.36172 | -135.37981 | 6746 ft | 268 kts | 91° |
| 2026-04-25 20:34 | 58.36186 | -135.33195 | 6559 ft | 271 kts | 91° |
| 2026-04-25 20:34 | 58.36188 | -135.29608 | 6407 ft | 270 kts | 91° |
| 2026-04-25 20:34 | 58.36183 | -135.26041 | 6272 ft | 269 kts | 91° |
| 2026-04-25 20:34 | 58.36176 | -135.22501 | 6130 ft | 267 kts | 91° |
| 2026-04-25 20:35 | 58.36167 | -135.18954 | 5920 ft | 268 kts | 91° |
| 2026-04-25 20:35 | 58.36156 | -135.15475 | 5677 ft | 263 kts | 91° |
| 2026-04-25 20:35 | 58.36144 | -135.11984 | 5434 ft | 257 kts | 91° |
| 2026-04-25 20:35 | 58.36132 | -135.08650 | 5209 ft | 252 kts | 91° |
| 2026-04-25 20:36 | 58.36119 | -135.05348 | 4843 ft | 246 kts | 91° |
| 2026-04-25 20:36 | 58.36107 | -135.02120 | 4455 ft | 241 kts | 90° |
| 2026-04-25 20:36 | 58.36094 | -134.98965 | 4083 ft | 236 kts | 90° |
| 2026-04-25 20:36 | 58.36080 | -134.95898 | 3730 ft | 226 kts | 90° |
| 2026-04-25 20:37 | 58.36065 | -134.92961 | 3385 ft | 218 kts | 90° |
| 2026-04-25 20:37 | 58.36051 | -134.90135 | 3058 ft | 208 kts | 90° |
| 2026-04-25 20:37 | 58.36037 | -134.87437 | 2841 ft | 199 kts | 90° |
| 2026-04-25 20:37 | 58.36022 | -134.84857 | 2681 ft | 196 kts | 90° |
| 2026-04-25 20:38 | 58.36007 | -134.82294 | 2508 ft | 188 kts | 90° |
| 2026-04-25 20:38 | 58.35993 | -134.79861 | 2331 ft | 178 kts | 90° |
| 2026-04-25 20:38 | 58.35978 | -134.77510 | 2100 ft | 176 kts | 90° |
| 2026-04-25 20:38 | 58.35964 | -134.75238 | 1842 ft | 169 kts | 90° |
| 2026-04-25 20:39 | 58.35949 | -134.73109 | 1627 ft | 152 kts | 90° |
| 2026-04-25 20:39 | 58.35934 | -134.71173 | 1365 ft | 142 kts | 91° |
| 2026-04-25 20:39 | 58.35911 | -134.69286 | 1193 ft | 143 kts | 92° |
| 2026-04-25 20:39 | 58.35899 | -134.68010 | 1145 ft | 142 kts | 90° |
| 2026-04-25 20:40 | 58.35881 | -134.65538 | 807 ft | 141 kts | 90° |
| 2026-04-25 20:40 | 58.35873 | -134.63650 | 548 ft | 144 kts | 89° |
| 2026-04-25 20:40 | 58.35976 | -134.61783 | 429 ft | 140 kts | 86° |
| 2026-04-25 20:40 | 58.35821 | -134.59967 | 87 ft | 138 kts | 104° |
| 2026-04-25 20:41 | 58.35591 | -134.58311 | 30 ft | 110 kts | 105° |
| 2026-04-25 20:41 | 58.35448 | -134.57291 | 33 ft | 50 kts | 104° |
| 2026-04-25 20:41 | 58.35388 | -134.56859 | 32 ft | 23 kts | 104° |
| 2026-04-25 20:41 | 58.35399 | -134.56692 | 30 ft | 11 kts | 28° |
| 2026-04-25 20:42 | 58.35468 | -134.56687 | 33 ft | 10 kts | 321° |
| 2026-04-25 20:42 | 58.35494 | -134.56811 | 33 ft | 11 kts | 284° |
| 2026-04-25 20:42 | 58.35515 | -134.56960 | 33 ft | 13 kts | 284° |
| 2026-04-25 20:42 | 58.35541 | -134.57145 | 33 ft | 16 kts | 285° |
| 2026-04-25 20:43 | 58.35572 | -134.57365 | 31 ft | 18 kts | 285° |
| 2026-04-25 20:43 | 58.35606 | -134.57612 | 33 ft | 20 kts | 284° |
| 2026-04-25 20:43 | 58.35642 | -134.57875 | 31 ft | 20 kts | 285° |
| 2026-04-25 20:43 | 58.35677 | -134.58129 | 32 ft | 19 kts | 284° |
| 2026-04-25 20:44 | 58.35700 | -134.58272 | 32 ft | 7 kts | 301° |
| 2026-04-25 20:44 | 58.35747 | -134.58300 | 32 ft | 7 kts | 0° |
| 2026-04-25 20:44 | 58.35796 | -134.58300 | 33 ft | 7 kts | 360° |
| 2026-04-25 20:44 | 58.35826 | -134.58300 | 33 ft | 2 kts | 0° |
| 2026-04-25 20:45 | 58.35835 | -134.58300 | 33 ft | 1 kts | 0° |